Time;durP1;ratioP1;P1;durP2;ratioP2;P2;SDS_P1;SDS_P2;PMS_P1;PMS_P2;Temp;Humidity;BMP_temperature;BMP_pressure;BME280_temperature;BME280_humidity;BME280_pressure;Samples;Min_cycle;Max_cycle;Signal;HPM_P1;HPM_P2
2024/01/23 00:01:20;;;;;;;12.57;1.57;;;;;;;6.08;100.00;100396.00;7325384;19;20786;-40
2024/01/23 00:03:50;;;;;;;10.90;2.13;;;;;;;6.08;100.00;100380.63;7330745;19;20424;-40
2024/01/23 00:06:20;;;;;;;20.93;3.60;;;;;;;6.10;100.00;100400.31;7345616;19;20402;-39
2024/01/23 00:08:52;;;;;;;5.37;2.00;;;;;;;6.10;100.00;100378.13;7333988;19;20535;-39
2024/01/23 00:11:22;;;;;;;4.97;0.73;;;;;;;6.18;100.00;100384.56;7347221;19;20405;-41
2024/01/23 00:13:52;;;;;;;14.67;2.27;;;;;;;6.12;100.00;100389.38;7324643;19;20415;-40
2024/01/23 00:16:24;;;;;;;5.10;1.10;;;;;;;6.12;100.00;100396.16;7345827;19;20467;-39
2024/01/23 00:18:54;;;;;;;27.43;3.60;;;;;;;6.14;100.00;100394.53;7323064;19;20427;-40
2024/01/23 00:21:23;;;;;;;12.87;2.10;;;;;;;6.18;100.00;100411.84;7345945;19;20423;-39
2024/01/23 00:23:53;;;;;;;8.13;2.00;;;;;;;6.18;100.00;100401.59;7323923;19;20428;-43
2024/01/23 00:26:23;;;;;;;9.77;2.10;;;;;;;6.14;100.00;100404.78;7352567;19;20510;-40
2024/01/23 00:28:53;;;;;;;15.33;2.53;;;;;;;6.12;100.00;100386.78;7330814;19;20442;-41
2024/01/23 00:31:26;;;;;;;9.03;1.40;;;;;;;6.10;100.00;100392.63;7353566;19;20398;-40
2024/01/23 00:33:56;;;;;;;5.60;1.43;;;;;;;6.07;100.00;100383.97;7331111;19;20861;-40
2024/01/23 00:36:26;;;;;;;3.70;1.00;;;;;;;6.07;100.00;100406.16;7353858;19;20462;-39
2024/01/23 00:38:55;;;;;;;8.80;1.27;;;;;;;6.05;100.00;100406.06;7330598;19;20780;-40
2024/01/23 00:41:25;;;;;;;7.83;1.90;;;;;;;6.02;100.00;100403.34;7353280;19;20572;-39
2024/01/23 00:43:55;;;;;;;6.97;1.93;;;;;;;6.02;100.00;100400.78;7329553;19;20505;-39
2024/01/23 00:46:27;;;;;;;9.73;1.77;;;;;;;6.00;100.00;100407.44;7352197;19;21231;-39
2024/01/23 00:48:57;;;;;;;11.53;1.50;;;;;;;5.97;100.00;100417.53;7330501;19;20434;-40
2024/01/23 00:51:27;;;;;;;9.30;2.73;;;;;;;5.98;100.00;100423.53;7352187;19;20432;-39
2024/01/23 00:53:56;;;;;;;13.63;1.93;;;;;;;5.92;100.00;100444.56;7330821;19;20424;-42
2024/01/23 00:56:26;;;;;;;13.27;1.43;;;;;;;4.65;100.00;100458.59;7351998;19;20524;-38
2024/01/23 00:58:56;;;;;;;7.27;1.70;;;;;;;3.47;100.00;100472.50;7329297;19;20437;-39
2024/01/23 01:01:28;;;;;;;7.13;0.90;;;;;;;3.18;100.00;100445.97;7351726;19;20751;-38
2024/01/23 01:03:58;;;;;;;10.10;1.50;;;;;;;3.10;100.00;100433.63;7326659;19;20448;-39
2024/01/23 01:06:27;;;;;;;7.47;1.40;;;;;;;3.12;100.00;100443.03;7351050;19;20477;-39
2024/01/23 01:08:57;;;;;;;12.37;2.90;;;;;;;3.13;100.00;100471.16;7329701;19;20462;-42
2024/01/23 01:11:27;;;;;;;10.17;3.00;;;;;;;3.15;100.00;100495.09;7352114;19;20399;-41
2024/01/23 01:13:57;;;;;;;11.13;1.37;;;;;;;3.17;100.00;100523.25;7329997;19;20461;-39
2024/01/23 01:16:29;;;;;;;8.83;1.93;;;;;;;3.20;100.00;100707.94;7352870;19;20421;-38
2024/01/23 01:18:59;;;;;;;24.17;5.00;;;;;;;3.26;100.00;100788.19;7328809;19;20444;-41
2024/01/23 01:21:29;;;;;;;10.40;1.97;;;;;;;3.29;100.00;100840.34;7351432;19;20409;-40
2024/01/23 01:23:59;;;;;;;11.67;2.37;;;;;;;3.28;100.00;100873.38;7329115;19;21173;-41
2024/01/23 01:26:29;;;;;;;12.13;2.07;;;;;;;3.26;100.00;100901.31;7352000;19;20428;-41
2024/01/23 01:28:58;;;;;;;15.00;4.00;;;;;;;3.34;100.00;100920.59;7328055;19;20514;-42
2024/01/23 01:31:31;;;;;;;25.90;7.53;;;;;;;3.36;100.00;100923.28;7350881;19;20382;-40
2024/01/23 01:34:00;;;;;;;10.73;1.37;;;;;;;3.42;100.00;100917.72;7328161;19;20415;-40
2024/01/23 01:36:30;;;;;;;18.60;2.13;;;;;;;3.45;100.00;100912.84;7348830;19;20409;-41
2024/01/23 01:39:02;;;;;;;12.70;2.30;;;;;;;3.51;100.00;100903.09;7327777;19;20951;-40
2024/01/23 01:41:31;;;;;;;6.23;1.57;;;;;;;3.55;100.00;100894.91;7351200;19;20421;-41
2024/01/23 01:44:01;;;;;;;12.83;1.67;;;;;;;3.61;100.00;100879.13;7328700;19;20504;-39
2024/01/23 01:46:33;;;;;;;5.30;0.93;;;;;;;3.69;100.00;100869.50;7350099;19;20762;-42
2024/01/23 01:49:04;;;;;;;10.87;1.47;;;;;;;3.72;100.00;100827.19;7328652;19;20423;-40
2024/01/23 01:51:34;;;;;;;11.33;1.60;;;;;;;3.73;100.00;100803.44;7350951;19;20459;-40
2024/01/23 01:54:04;;;;;;;24.20;4.17;;;;;;;3.80;100.00;100753.72;7328572;19;20423;-40
2024/01/23 01:56:34;;;;;;;10.13;2.13;;;;;;;3.83;100.00;100728.41;7350187;19;20430;-40
2024/01/23 01:59:03;;;;;;;10.00;1.93;;;;;;;3.90;100.00;100692.28;7327286;19;20921;-40
2024/01/23 02:01:36;;;;;;;8.20;1.80;;;;;;;3.95;100.00;100681.53;7344072;19;20423;-41
2024/01/23 02:04:06;;;;;;;6.20;1.60;;;;;;;4.09;100.00;100624.59;7326776;19;20429;-39
2024/01/23 02:06:36;;;;;;;20.37;3.87;;;;;;;4.23;100.00;100593.94;7349864;19;20501;-40
2024/01/23 02:09:06;;;;;;;13.37;3.63;;;;;;;4.21;100.00;100570.88;7328026;19;20425;-40
2024/01/23 02:11:36;;;;;;;6.17;1.83;;;;;;;4.23;100.00;100553.97;7350669;19;20444;-40
2024/01/23 02:14:06;;;;;;;20.13;2.13;;;;;;;4.23;100.00;100551.44;7328079;19;20444;-40
2024/01/23 02:16:38;;;;;;;14.73;2.07;;;;;;;4.26;100.00;100536.28;7350031;19;20419;-40
2024/01/23 02:19:10;;;;;;;13.90;1.90;;;;;;;4.26;100.00;100523.50;7326860;19;20427;-40
2024/01/23 02:21:39;;;;;;;8.63;1.27;;;;;;;4.32;100.00;100512.81;7349375;19;20430;-41
2024/01/23 02:24:12;;;;;;;9.83;1.47;;;;;;;4.26;100.00;100522.66;7328114;19;20392;-42
2024/01/23 02:26:41;;;;;;;12.83;2.47;;;;;;;4.25;100.00;100500.47;7348508;19;20927;-41
2024/01/23 02:29:11;;;;;;;6.73;0.93;;;;;;;4.25;100.00;100501.31;7327480;19;20402;-41
2024/01/23 02:31:41;;;;;;;17.67;2.73;;;;;;;4.28;100.00;100503.19;7349056;19;20423;-41
2024/01/23 02:34:11;;;;;;;16.63;3.30;;;;;;;4.26;100.00;100492.00;7327246;19;20916;-41
2024/01/23 02:36:42;;;;;;;9.10;2.00;;;;;;;4.25;100.00;100492.78;7348433;19;20456;-41
2024/01/23 02:39:14;;;;;;;6.97;1.80;;;;;;;4.25;100.00;100503.00;7327222;19;20550;-41
2024/01/23 02:41:44;;;;;;;5.40;1.57;;;;;;;4.27;100.00;100492.09;7349180;19;20426;-41
2024/01/23 02:44:13;;;;;;;10.87;1.90;;;;;;;4.26;100.00;100487.75;7327316;19;20466;-41
2024/01/23 02:46:44;;;;;;;26.20;3.87;;;;;;;4.23;100.00;100489.22;7347929;19;20507;-40
2024/01/23 02:49:13;;;;;;;7.83;1.83;;;;;;;4.19;100.00;100494.16;7324738;19;20434;-42
2024/01/23 02:51:43;;;;;;;10.73;1.60;;;;;;;4.18;100.00;100501.72;7348777;19;20455;-41
2024/01/23 02:54:15;;;;;;;11.07;1.60;;;;;;;4.25;100.00;100498.75;7327033;19;20483;-41
2024/01/23 02:56:45;;;;;;;4.27;1.30;;;;;;;4.25;100.00;100477.47;7348160;19;20423;-40
2024/01/23 02:59:16;;;;;;;2.23;0.70;;;;;;;4.28;100.00;100481.09;7320738;19;21156;-41
2024/01/23 03:01:45;;;;;;;9.70;2.20;;;;;;;4.27;100.00;100466.56;7347393;19;20502;-41
2024/01/23 03:04:15;;;;;;;7.10;1.50;;;;;;;4.29;100.00;100481.97;7326186;19;20399;-44
2024/01/23 03:06:45;;;;;;;18.33;2.50;;;;;;;4.30;100.00;100482.06;7348001;19;20432;-42
2024/01/23 03:09:17;;;;;;;6.20;1.33;;;;;;;4.31;100.00;100493.19;7327343;19;20426;-40
2024/01/23 03:11:47;;;;;;;10.20;1.80;;;;;;;4.32;100.00;100482.16;7347884;19;20441;-40
2024/01/23 03:14:16;;;;;;;14.30;3.43;;;;;;;4.32;100.00;100494.94;7326965;19;21217;-41
2024/01/23 03:16:46;;;;;;;5.77;0.87;;;;;;;4.31;100.00;100506.81;7347746;19;20819;-40
2024/01/23 03:19:15;;;;;;;18.10;1.50;;;;;;;4.37;100.00;100493.56;7326624;19;20404;-40
2024/01/23 03:21:45;;;;;;;10.23;1.40;;;;;;;4.40;100.00;100505.63;7347770;19;20455;-41
2024/01/23 03:24:18;;;;;;;17.53;1.90;;;;;;;4.38;100.00;100509.75;7326419;19;20438;-41
2024/01/23 03:26:47;;;;;;;6.60;1.40;;;;;;;4.37;100.00;100508.91;7347098;19;20955;-41
2024/01/23 03:29:17;;;;;;;11.23;1.47;;;;;;;4.39;100.00;100520.09;7326978;19;20395;-41
2024/01/23 03:31:46;;;;;;;7.53;1.37;;;;;;;4.40;100.00;100529.50;7346070;19;20541;-41
2024/01/23 03:34:16;;;;;;;2.67;0.83;;;;;;;4.45;100.00;100553.69;7326629;19;20416;-41
2024/01/23 03:36:46;;;;;;;11.77;1.73;;;;;;;4.50;100.00;100545.44;7346793;19;20517;-41
2024/01/23 03:39:18;;;;;;;19.40;2.57;;;;;;;4.49;100.00;100544.53;7325608;19;20455;-42
2024/01/23 03:41:47;;;;;;;7.50;2.43;;;;;;;4.46;100.00;100557.09;7345925;19;20451;-41
2024/01/23 03:44:17;;;;;;;11.60;2.30;;;;;;;4.51;100.00;100562.53;7326955;19;20431;-41
2024/01/23 03:46:47;;;;;;;3.70;1.10;;;;;;;4.54;100.00;100572.94;7346661;19;20804;-40
2024/01/23 03:49:16;;;;;;;56.77;4.17;;;;;;;4.57;100.00;100583.34;7326382;19;20524;-41
2024/01/23 03:51:46;;;;;;;2.53;1.13;;;;;;;4.57;100.00;100578.25;7346164;19;20460;-42
2024/01/23 03:54:19;;;;;;;40.97;2.17;;;;;;;4.56;100.00;100589.25;7326073;19;20398;-41
2024/01/23 03:56:49;;;;;;;17.43;2.50;;;;;;;4.60;100.00;100547.75;7346785;19;20506;-41
2024/01/23 03:59:18;;;;;;;4.90;0.87;;;;;;;4.64;100.00;100593.19;7325194;19;20422;-40
2024/01/23 04:01:48;;;;;;;16.80;2.13;;;;;;;4.67;100.00;100589.94;7344882;19;20538;-41
2024/01/23 04:04:20;;;;;;;9.07;1.10;;;;;;;4.66;100.00;100606.94;7322950;19;20483;-41
2024/01/23 04:06:49;;;;;;;12.73;2.53;;;;;;;4.66;100.00;100595.84;7343089;19;20822;-40
2024/01/23 04:09:22;;;;;;;9.77;1.40;;;;;;;4.64;100.00;100603.41;7346975;19;20406;-44
2024/01/23 04:11:51;;;;;;;13.37;3.17;;;;;;;4.68;100.00;100618.13;7323239;19;20465;-41
2024/01/23 04:14:21;;;;;;;12.43;1.40;;;;;;;4.68;100.00;100615.56;7346291;19;20423;-39
2024/01/23 04:16:51;;;;;;;8.80;1.67;;;;;;;4.67;100.00;100626.56;7328363;19;20861;-38
2024/01/23 04:19:20;;;;;;;10.30;1.60;;;;;;;4.68;100.00;100613.00;7345862;19;20419;-40
2024/01/23 04:21:50;;;;;;;15.63;3.27;;;;;;;4.70;100.00;100626.78;7335980;19;20461;-40
2024/01/23 04:24:22;;;;;;;11.93;2.70;;;;;;;4.72;100.00;100625.19;7346963;19;20437;-37
2024/01/23 04:26:52;;;;;;;18.33;2.90;;;;;;;4.72;100.00;100644.78;7323130;19;20435;-38
2024/01/23 04:29:22;;;;;;;15.63;2.63;;;;;;;4.75;100.00;100670.53;7345748;19;20415;-39
2024/01/23 04:31:51;;;;;;;17.77;1.90;;;;;;;4.73;100.00;100652.53;7322556;19;20448;-40
2024/01/23 04:34:21;;;;;;;16.97;2.83;;;;;;;4.75;100.00;100646.63;7345897;19;20444;-38
2024/01/23 04:36:51;;;;;;;26.60;3.10;;;;;;;4.75;100.00;100650.06;7330329;19;20833;-38
2024/01/23 04:39:23;;;;;;;15.63;2.07;;;;;;;4.75;100.00;100659.41;7345541;19;20398;-40
2024/01/23 04:41:52;;;;;;;13.17;1.90;;;;;;;4.76;100.00;100668.88;7322550;19;20833;-39
2024/01/23 04:44:22;;;;;;;11.40;1.20;;;;;;;4.79;100.00;100666.50;7345121;19;20400;-40
2024/01/23 04:46:52;;;;;;;10.67;1.97;;;;;;;4.76;100.00;100681.66;7322314;19;20494;-39
2024/01/23 04:49:21;;;;;;;11.30;2.40;;;;;;;4.75;100.00;100682.41;7345092;19;20475;-39
2024/01/23 04:51:51;;;;;;;11.73;1.67;;;;;;;4.76;100.00;100689.31;7323999;19;20484;-39
2024/01/23 04:54:23;;;;;;;16.40;1.77;;;;;;;4.77;100.00;100685.97;7345125;19;20395;-40
2024/01/23 04:56:53;;;;;;;22.90;3.40;;;;;;;4.82;100.00;100702.50;7323524;19;20796;-40
2024/01/23 04:59:23;;;;;;;19.33;2.90;;;;;;;4.81;100.00;100705.81;7344713;19;20399;-40
2024/01/23 05:01:52;;;;;;;23.47;3.77;;;;;;;4.81;100.00;100704.16;7320432;19;20451;-38
2024/01/23 05:04:22;;;;;;;16.30;2.03;;;;;;;4.78;100.00;100718.41;7342765;19;20423;-40
2024/01/23 05:06:52;;;;;;;15.93;2.00;;;;;;;4.77;100.00;100727.75;7321633;19;20423;-38
2024/01/23 05:09:24;;;;;;;16.73;2.80;;;;;;;4.75;100.00;100726.78;7344105;19;20485;-40
2024/01/23 05:11:56;;;;;;;10.77;2.60;;;;;;;4.70;100.00;100734.16;7322680;19;20471;-40
2024/01/23 05:14:25;;;;;;;19.47;2.67;;;;;;;4.69;100.00;100737.50;7351484;19;20444;-39
2024/01/23 05:16:55;;;;;;;6.70;1.20;;;;;;;4.69;100.00;100736.59;7328677;19;20427;-39
2024/01/23 05:19:24;;;;;;;5.83;1.40;;;;;;;4.67;100.00;100735.63;7351374;19;20506;-39
2024/01/23 05:21:55;;;;;;;22.73;2.43;;;;;;;4.64;100.00;100751.63;7327930;19;20532;-39
2024/01/23 05:24:27;;;;;;;15.43;2.60;;;;;;;4.61;100.00;100748.00;7351050;19;20996;-39
2024/01/23 05:26:57;;;;;;;7.73;1.47;;;;;;;4.59;100.00;100741.13;7327484;19;20452;-42
2024/01/23 05:29:26;;;;;;;9.10;1.23;;;;;;;4.66;100.00;100742.38;7350870;19;20411;-39
2024/01/23 05:31:56;;;;;;;12.23;1.70;;;;;;;4.66;100.00;100738.97;7326872;19;20442;-39
2024/01/23 05:34:26;;;;;;;27.63;1.80;;;;;;;4.70;100.00;100749.47;7350700;19;20776;-40
2024/01/23 05:36:56;;;;;;;18.83;2.20;;;;;;;4.56;100.00;100763.03;7327837;19;20424;-40
2024/01/23 05:39:29;;;;;;;11.93;2.00;;;;;;;4.40;100.00;100762.00;7351036;19;20475;-41
2024/01/23 05:42:00;;;;;;;17.07;2.07;;;;;;;4.30;100.00;100749.38;7327414;19;20454;-39
2024/01/23 05:44:30;;;;;;;13.20;2.40;;;;;;;4.29;100.00;100750.16;7351223;19;20439;-40
2024/01/23 05:46:59;;;;;;;11.23;1.97;;;;;;;4.30;100.00;100767.25;7327894;19;21018;-42
2024/01/23 05:49:29;;;;;;;10.87;1.37;;;;;;;4.34;100.00;100764.13;7351631;19;21030;-40
2024/01/23 05:51:59;;;;;;;19.23;2.97;;;;;;;4.35;100.00;100776.13;7327277;19;20450;-40
2024/01/23 05:54:31;;;;;;;20.70;2.30;;;;;;;4.33;100.00;100777.69;7351364;19;20495;-38
2024/01/23 05:57:01;;;;;;;4.60;0.90;;;;;;;4.29;100.00;100770.59;7327938;19;20454;-40
2024/01/23 05:59:30;;;;;;;29.67;3.43;;;;;;;4.30;100.00;100782.59;7351449;19;20449;-40
2024/01/23 06:02:00;;;;;;;16.30;2.40;;;;;;;4.31;100.00;100792.06;7326362;19;20840;-39
2024/01/23 06:04:30;;;;;;;13.57;2.37;;;;;;;4.29;100.00;100816.59;7349319;19;20829;-40
2024/01/23 06:06:59;;;;;;;15.10;3.93;;;;;;;4.28;100.00;100825.94;7327729;19;20463;-39
2024/01/23 06:09:32;;;;;;;18.87;3.13;;;;;;;4.26;100.00;100827.47;7346852;19;20488;-40
2024/01/23 06:12:01;;;;;;;23.73;3.80;;;;;;;4.25;100.00;100832.50;7323950;19;20462;-38
2024/01/23 06:14:31;;;;;;;20.23;2.30;;;;;;;4.29;100.00;100842.13;7349709;19;20395;-40
2024/01/23 06:17:00;;;;;;;31.77;2.60;;;;;;;4.32;100.00;100833.00;7327175;19;20416;-40
2024/01/23 06:19:30;;;;;;;8.53;1.90;;;;;;;4.39;100.00;100843.63;7349504;19;20426;-39
2024/01/23 06:22:00;;;;;;;14.63;2.77;;;;;;;4.43;100.00;100818.44;7322825;19;20478;-39
2024/01/23 06:24:34;;;;;;;20.43;2.90;;;;;;;4.49;100.00;100822.16;7349635;19;20431;-40
2024/01/23 06:27:03;;;;;;;16.13;3.30;;;;;;;4.56;100.00;100815.00;7326559;19;20430;-42
2024/01/23 06:29:33;;;;;;;28.97;5.13;;;;;;;4.57;100.00;100828.69;7349404;19;20978;-39
2024/01/23 06:32:03;;;;;;;21.90;3.97;;;;;;;4.62;100.00;100822.22;7326535;19;20474;-39
2024/01/23 06:34:32;;;;;;;25.73;4.80;;;;;;;4.64;100.00;100828.31;7348686;19;20403;-39
2024/01/23 06:37:02;;;;;;;19.87;3.30;;;;;;;4.72;100.00;100816.06;7323345;19;20426;-39
2024/01/23 06:39:34;;;;;;;23.80;5.13;;;;;;;4.78;100.00;100800.22;7348538;19;20406;-40
2024/01/23 06:42:04;;;;;;;29.57;7.50;;;;;;;4.91;100.00;100824.94;7325491;19;20461;-39
2024/01/23 06:44:34;;;;;;;76.47;18.80;;;;;;;5.00;100.00;100828.09;7348857;19;20990;-39
2024/01/23 06:47:04;;;;;;;22.17;3.50;;;;;;;4.94;100.00;100840.47;7325926;19;20824;-39
2024/01/23 06:49:34;;;;;;;38.33;7.83;;;;;;;5.08;100.00;100841.38;7349436;19;20406;-41
2024/01/23 06:52:03;;;;;;;32.90;4.40;;;;;;;5.05;100.00;100852.28;7325573;19;20453;-40
2024/01/23 06:54:35;;;;;;;23.67;3.27;;;;;;;5.12;100.00;100859.59;7348213;19;20467;-41
2024/01/23 06:57:03;;;;;;;37.80;9.17;;;;;;;5.20;100.00;100883.13;7325359;19;20984;-39
2024/01/23 06:59:32;;;;;;;15.60;3.10;;;;;;;5.22;100.00;100875.50;7348980;19;20761;-40
2024/01/23 07:02:04;;;;;;;10.07;3.03;;;;;;;5.26;100.00;100888.63;7324663;19;21010;-39
2024/01/23 07:04:34;;;;;;;17.87;3.30;;;;;;;5.30;100.00;100906.72;7347023;19;20446;-40
2024/01/23 07:07:03;;;;;;;25.63;7.13;;;;;;;5.32;100.00;100902.63;7325683;19;20420;-39
2024/01/23 07:09:36;;;;;;;29.30;4.90;;;;;;;5.35;100.00;100907.91;7348832;19;20413;-40
2024/01/23 07:12:06;;;;;;;11.33;3.20;;;;;;;5.37;100.00;100921.69;7324971;19;20459;-39
2024/01/23 07:14:36;;;;;;;17.87;4.27;;;;;;;5.48;100.00;100923.28;7349687;19;20447;-38
2024/01/23 07:17:06;;;;;;;48.53;12.00;;;;;;;5.45;100.00;100930.78;7325182;19;20789;-41
2024/01/23 07:19:35;;;;;;;32.10;5.57;;;;;;;5.48;100.00;100959.13;7349400;19;21143;-39
2024/01/23 07:22:05;;;;;;;31.53;4.20;;;;;;;5.47;100.00;100967.59;7321733;19;20463;-38
2024/01/23 07:24:37;;;;;;;34.93;5.60;;;;;;;5.46;100.00;100986.28;7349010;19;20403;-40
2024/01/23 07:27:07;;;;;;;29.83;6.70;;;;;;;5.58;100.00;100980.22;7324233;19;20427;-39
2024/01/23 07:29:38;;;;;;;19.70;2.87;;;;;;;5.49;100.00;100983.91;7347182;19;20985;-39
2024/01/23 07:32:08;;;;;;;38.93;5.73;;;;;;;5.60;100.00;100992.31;7323375;19;20525;-40
2024/01/23 07:34:37;;;;;;;28.93;3.27;;;;;;;5.52;100.00;101002.06;7345570;19;20433;-39
2024/01/23 07:37:08;;;;;;;15.73;2.63;;;;;;;5.52;100.00;101011.38;7322715;19;20430;-40
2024/01/23 07:39:40;;;;;;;22.87;4.27;;;;;;;5.52;100.00;101027.66;7346975;19;20410;-41
2024/01/23 07:42:10;;;;;;;23.80;3.30;;;;;;;5.50;100.00;101008.72;7322265;19;20424;-40
2024/01/23 07:44:39;;;;;;;34.53;6.60;;;;;;;5.48;100.00;101024.78;7345459;19;20824;-40
2024/01/23 07:47:09;;;;;;;37.00;5.80;;;;;;;5.48;100.00;101024.78;7323929;19;20435;-40
2024/01/23 07:49:39;;;;;;;31.53;4.43;;;;;;;5.48;100.00;101046.13;7346125;19;20437;-40
2024/01/23 07:52:10;;;;;;;18.00;3.73;;;;;;;5.52;100.00;101037.88;7321069;19;20463;-38
2024/01/23 07:54:42;;;;;;;19.93;3.77;;;;;;;5.53;100.00;101049.00;7345650;19;20444;-38
2024/01/23 07:57:12;;;;;;;13.83;2.90;;;;;;;5.51;100.00;101046.34;7322493;19;20536;-39
2024/01/23 07:59:41;;;;;;;23.60;3.40;;;;;;;5.49;100.00;101060.69;7345977;19;20480;-38
2024/01/23 08:02:11;;;;;;;25.87;3.20;;;;;;;5.45;100.00;101063.88;7322656;19;20395;-39
2024/01/23 08:04:40;;;;;;;23.80;5.00;;;;;;;5.46;100.00;101070.75;7344342;19;20966;-40
2024/01/23 08:07:14;;;;;;;24.57;4.30;;;;;;;5.44;100.00;101082.53;7322615;19;20945;-39
2024/01/23 08:09:46;;;;;;;32.77;4.30;;;;;;;5.45;100.00;101092.00;7344992;19;20447;-39
2024/01/23 08:12:16;;;;;;;20.50;3.43;;;;;;;5.48;100.00;101106.69;7322690;19;20770;-41
2024/01/23 08:14:46;;;;;;;39.37;5.10;;;;;;;5.47;100.00;101095.56;7344860;19;20425;-40
2024/01/23 08:17:15;;;;;;;25.53;3.40;;;;;;;5.44;100.00;101113.25;7323724;19;20412;-40
2024/01/23 08:19:45;;;;;;;23.63;3.87;;;;;;;5.44;100.00;101128.59;7345655;19;20431;-41
2024/01/23 08:22:15;;;;;;;27.17;3.40;;;;;;;5.47;100.00;101133.94;7320460;19;20441;-39
2024/01/23 08:24:48;;;;;;;31.60;4.33;;;;;;;5.50;100.00;101144.38;7345769;19;20427;-40
2024/01/23 08:27:17;;;;;;;14.47;2.07;;;;;;;5.51;100.00;101168.31;7323013;19;20399;-40
2024/01/23 08:29:47;;;;;;;22.20;3.90;;;;;;;5.54;100.00;101142.94;7344863;19;20455;-39
2024/01/23 08:32:16;;;;;;;35.10;6.60;;;;;;;5.51;100.00;101161.53;7323454;19;20403;-41
2024/01/23 08:34:46;;;;;;;13.03;2.53;;;;;;;5.56;100.00;101155.81;7341897;19;20431;-39
2024/01/23 08:37:16;;;;;;;29.97;5.10;;;;;;;5.56;100.00;101171.19;7322638;19;20763;-39
2024/01/23 08:39:48;;;;;;;19.03;3.80;;;;;;;5.58;100.00;101179.88;7344314;19;21087;-40
2024/01/23 08:42:18;;;;;;;27.03;3.90;;;;;;;5.57;100.00;101172.97;7322804;19;20820;-39
2024/01/23 08:44:50;;;;;;;44.10;4.40;;;;;;;5.57;100.00;101183.19;7345599;19;20441;-40
2024/01/23 08:47:19;;;;;;;28.60;5.17;;;;;;;5.59;100.00;101204.69;7325720;19;20401;-39
2024/01/23 08:49:49;;;;;;;19.73;3.50;;;;;;;5.58;100.00;101211.47;7351466;19;20506;-38
2024/01/23 08:52:19;;;;;;;24.50;3.60;;;;;;;5.58;100.00;101205.47;7329648;19;20395;-40
2024/01/23 08:54:51;;;;;;;28.13;4.50;;;;;;;5.57;100.00;101225.06;7351808;19;20423;-40
2024/01/23 08:57:23;;;;;;;36.57;5.40;;;;;;;5.61;100.00;101228.72;7329599;19;20459;-39
2024/01/23 08:59:53;;;;;;;22.53;3.23;;;;;;;5.64;100.00;101234.06;7328504;19;20434;-39
2024/01/23 09:02:22;;;;;;;22.00;3.67;;;;;;;5.62;100.00;101230.50;7349124;19;20419;-38
2024/01/23 09:04:52;;;;;;;24.37;3.47;;;;;;;5.61;100.00;101241.53;7327309;19;21096;-39
2024/01/23 09:07:22;;;;;;;18.50;3.07;;;;;;;5.64;100.00;101257.09;7351419;19;20398;-40
2024/01/23 09:09:55;;;;;;;13.53;3.00;;;;;;;5.66;100.00;101255.53;7326129;19;20430;-40
2024/01/23 09:12:25;;;;;;;26.73;4.43;;;;;;;5.67;100.00;101263.31;7348725;19;20491;-39
2024/01/23 09:14:55;;;;;;;17.67;2.30;;;;;;;5.71;100.00;101267.00;7329677;19;20423;-41
2024/01/23 09:17:24;;;;;;;33.30;5.00;;;;;;;5.67;100.00;101258.22;7350968;19;20407;-39
2024/01/23 09:19:54;;;;;;;28.53;4.93;;;;;;;5.70;100.00;101277.13;7329568;19;20498;-39
2024/01/23 09:22:24;;;;;;;15.90;1.70;;;;;;;5.67;100.00;101299.19;7348104;19;20428;-39
2024/01/23 09:24:57;;;;;;;24.07;4.73;;;;;;;5.73;100.00;101283.34;7329141;19;20429;-39
2024/01/23 09:27:26;;;;;;;38.17;5.67;;;;;;;5.76;100.00;101269.88;7350357;19;20439;-41
2024/01/23 09:30:15;;;;;;;30.20;5.23;;;;;;;5.76;100.00;101313.41;7328914;19;20435;-39
2024/01/23 09:32:44;;;;;;;16.37;3.43;;;;;;;5.72;100.00;101306.28;7350066;19;20423;-40
2024/01/23 09:35:15;;;;;;;32.57;4.63;;;;;;;5.75;100.00;101301.38;7328285;19;20388;-38
2024/01/23 09:37:45;;;;;;;34.27;5.10;;;;;;;5.78;100.00;101306.69;7349827;19;20432;-39
2024/01/23 09:40:18;;;;;;;27.87;3.80;;;;;;;5.81;100.00;101310.38;7330004;19;20478;-39
2024/01/23 09:42:49;;;;;;;22.67;3.80;;;;;;;5.77;100.00;101321.19;7350440;19;20433;-39
2024/01/23 09:45:21;;;;;;;31.83;4.53;;;;;;;5.75;100.00;101324.44;7330760;19;20399;-38
2024/01/23 09:47:50;;;;;;;21.87;4.60;;;;;;;5.69;100.00;101332.53;7345246;19;20423;-39
2024/01/23 09:50:21;;;;;;;30.90;4.27;;;;;;;5.72;100.00;101331.88;7351314;19;20504;-38
2024/01/23 09:52:50;;;;;;;25.10;4.33;;;;;;;5.71;100.00;101358.25;7345915;19;20424;-38
2024/01/23 09:55:23;;;;;;;28.77;4.43;;;;;;;5.73;100.00;101347.34;7350668;19;20392;-39
2024/01/23 09:57:52;;;;;;;32.10;2.73;;;;;;;5.66;100.00;101357.94;7325211;19;20452;-39
2024/01/23 10:00:22;;;;;;;26.20;4.00;;;;;;;5.72;100.00;101363.50;7349685;19;20399;-37
2024/01/23 10:02:54;;;;;;;23.37;4.70;;;;;;;5.74;100.00;101372.19;7323641;19;20484;-39
2024/01/23 10:05:25;;;;;;;22.63;4.23;;;;;;;5.75;100.00;101363.72;7351014;19;20478;-43
2024/01/23 10:07:57;;;;;;;35.33;5.23;;;;;;;5.76;100.00;101374.84;7326938;19;20420;-43
2024/01/23 10:10:29;;;;;;;16.13;2.97;;;;;;;5.77;100.00;101376.63;7348988;19;20405;-43
2024/01/23 10:12:58;;;;;;;26.50;3.73;;;;;;;5.78;100.00;101379.31;7326349;19;20902;-41
2024/01/23 10:15:28;;;;;;;24.27;4.90;;;;;;;5.75;100.00;101383.31;7349649;19;20844;-43
2024/01/23 10:17:58;;;;;;;19.63;3.83;;;;;;;5.80;100.00;101389.66;7326106;19;20428;-43
2024/01/23 10:20:30;;;;;;;19.60;3.70;;;;;;;5.81;100.00;101387.19;7349869;19;20407;-42
2024/01/23 10:23:00;;;;;;;57.33;14.63;;;;;;;5.86;100.00;101399.44;7324975;19;20429;-43
2024/01/23 10:25:32;;;;;;;43.07;7.73;;;;;;;5.92;100.00;101393.09;7347214;19;20427;-45
2024/01/23 10:28:02;;;;;;;50.97;12.53;;;;;;;5.92;100.00;101398.22;7325846;19;20783;-44
2024/01/23 10:30:32;;;;;;;35.77;8.23;;;;;;;6.00;100.00;101393.63;7348667;19;20406;-45
2024/01/23 10:33:01;;;;;;;71.00;20.80;;;;;;;6.03;100.00;101396.44;7325504;19;20419;-45
2024/01/23 10:35:33;;;;;;;12.93;3.20;;;;;;;6.00;100.00;101405.56;7348131;19;20419;-41
2024/01/23 10:38:05;;;;;;;49.80;12.87;;;;;;;6.02;100.00;101403.97;7323145;19;20441;-42
2024/01/23 10:40:37;;;;;;;81.10;18.73;;;;;;;6.07;100.00;101411.22;7346537;19;20856;-43
2024/01/23 10:43:08;;;;;;;20.87;3.87;;;;;;;5.97;100.00;101426.72;7324659;19;20982;-43
2024/01/23 10:45:38;;;;;;;30.20;4.33;;;;;;;5.93;100.00;101424.72;7348525;19;20406;-45
2024/01/23 10:48:08;;;;;;;23.23;4.20;;;;;;;5.94;100.00;101423.94;7325488;19;20535;-41
2024/01/23 10:50:38;;;;;;;26.13;4.90;;;;;;;6.06;100.00;101422.25;7348029;19;20487;-44
2024/01/23 10:53:08;;;;;;;27.10;7.00;;;;;;;5.97;100.00;101436.06;7322597;19;20509;-43
2024/01/23 10:55:43;;;;;;;30.10;6.00;;;;;;;6.05;100.00;101437.56;7348325;19;20411;-45
2024/01/23 10:58:21;;;;;;;25.93;4.67;;;;;;;6.03;100.00;101436.53;7319954;19;20418;-42
2024/01/23 11:00:52;;;;;;;37.90;4.50;;;;;;;6.02;100.00;101444.97;7340968;19;20422;-42
2024/01/23 11:03:22;;;;;;;20.97;4.23;;;;;;;6.03;100.00;101463.06;7345858;19;20417;-44
2024/01/23 11:05:54;;;;;;;45.03;8.30;;;;;;;6.12;100.00;101446.53;7331788;19;20827;-44
2024/01/23 11:08:27;;;;;;;29.03;5.47;;;;;;;6.11;100.00;101452.47;7347255;19;20420;-44
2024/01/23 11:11:03;;;;;;;32.27;6.50;;;;;;;6.14;100.00;101457.78;7321863;19;20466;-44
2024/01/23 11:13:35;;;;;;;31.97;4.33;;;;;;;6.17;100.00;101451.25;7348378;19;20426;-41
2024/01/23 11:16:06;;;;;;;31.70;7.03;;;;;;;6.10;100.00;101450.69;7325750;19;20467;-40
2024/01/23 11:18:37;;;;;;;28.13;5.10;;;;;;;6.07;100.00;101454.78;7347332;19;20414;-43
2024/01/23 11:21:17;;;;;;;21.30;5.80;;;;;;;6.10;100.00;101446.44;7324213;19;20430;-46
2024/01/23 11:23:48;;;;;;;17.77;3.30;;;;;;;6.03;100.00;101451.91;7345310;19;20455;-45
2024/01/23 11:26:22;;;;;;;41.73;4.50;;;;;;;6.10;100.00;101453.25;7325487;19;20794;-42
2024/01/23 11:28:54;;;;;;;34.60;3.93;;;;;;;6.00;100.00;101462.78;7324736;19;20864;-43
2024/01/23 11:31:25;;;;;;;27.87;4.80;;;;;;;6.06;100.00;101454.69;7345819;19;20983;-46
2024/01/23 11:33:56;;;;;;;33.37;4.00;;;;;;;6.01;100.00;101467.13;7324204;19;20448;-45